createdAt,value
2018-08-30T00:02:21.025Z,9.83
2018-08-30T00:04:49.186Z,9.87
2018-08-30T00:07:17.471Z,9.37
2018-08-30T00:09:45.538Z,8.33
2018-08-30T00:12:13.621Z,8.27
2018-08-30T00:14:41.756Z,8.23
2018-08-30T00:17:09.745Z,10.50
2018-08-30T00:19:37.802Z,11.23
2018-08-30T00:22:05.820Z,8.50
2018-08-30T00:24:33.921Z,11.37
2018-08-30T00:27:02.014Z,9.27
2018-08-30T00:29:30.048Z,10.20
2018-08-30T00:31:58.120Z,9.77
2018-08-30T00:34:26.361Z,10.00
2018-08-30T00:36:54.385Z,11.50
2018-08-30T00:39:22.440Z,8.77
2018-08-30T00:41:50.579Z,11.30
2018-08-30T00:44:18.747Z,9.20
2018-08-30T00:46:46.968Z,10.10
2018-08-30T00:49:15.303Z,8.47
2018-08-30T00:51:43.304Z,8.20
2018-08-30T00:54:11.610Z,8.97
2018-08-30T00:56:39.661Z,10.20
2018-08-30T00:59:07.409Z,9.47
2018-08-30T01:01:35.611Z,13.80
2018-08-30T01:04:03.745Z,12.97
2018-08-30T01:06:31.766Z,9.13
2018-08-30T01:08:59.962Z,8.77
2018-08-30T01:11:28.118Z,7.73
2018-08-30T01:13:56.351Z,9.73
2018-08-30T01:16:24.448Z,9.97
2018-08-30T01:18:52.460Z,10.53
2018-08-30T01:21:20.472Z,8.47
2018-08-30T01:23:48.652Z,10.07
2018-08-30T01:26:16.752Z,10.80
2018-08-30T01:28:44.806Z,8.97
2018-08-30T01:31:12.991Z,9.40
2018-08-30T01:33:41.068Z,11.10
2018-08-30T01:36:09.284Z,10.77
2018-08-30T01:38:37.293Z,10.00
2018-08-30T01:41:05.548Z,9.53
2018-08-30T01:43:33.562Z,8.80
2018-08-30T01:46:01.595Z,10.03
2018-08-30T01:48:29.754Z,10.83
2018-08-30T01:50:57.915Z,10.13
2018-08-30T01:53:26.142Z,10.43
2018-08-30T01:55:54.149Z,11.77
2018-08-30T01:58:22.222Z,11.53
2018-08-30T02:00:50.259Z,12.63
2018-08-30T02:03:18.301Z,9.53
2018-08-30T02:05:46.369Z,10.37
2018-08-30T02:08:14.406Z,10.67
2018-08-30T02:10:42.542Z,9.60
2018-08-30T02:13:10.517Z,10.13
2018-08-30T02:15:38.537Z,10.13
2018-08-30T02:18:06.667Z,10.87
2018-08-30T02:20:34.680Z,12.77
2018-08-30T02:23:02.713Z,10.73
2018-08-30T02:25:30.798Z,12.17
2018-08-30T02:27:58.840Z,13.27
2018-08-30T02:30:26.997Z,9.80
2018-08-30T02:32:55.349Z,12.57
2018-08-30T02:35:23.498Z,12.70
2018-08-30T02:37:51.730Z,10.17
2018-08-30T02:40:19.797Z,11.00
2018-08-30T02:42:47.958Z,10.97
2018-08-30T02:45:16.104Z,11.37
2018-08-30T02:47:44.189Z,11.53
2018-08-30T02:50:12.212Z,10.87
2018-08-30T02:52:40.248Z,10.33
2018-08-30T02:55:08.457Z,11.53
2018-08-30T02:57:36.457Z,10.07
2018-08-30T03:00:04.601Z,10.83
2018-08-30T03:02:32.831Z,10.70
2018-08-30T03:05:00.855Z,11.23
2018-08-30T03:07:28.884Z,10.97
2018-08-30T03:09:56.981Z,9.90
2018-08-30T03:12:25.252Z,8.67
2018-08-30T03:15:06.927Z,11.53
2018-08-30T03:17:35.213Z,11.27
2018-08-30T03:20:03.989Z,13.17
2018-08-30T03:22:32.205Z,11.13
2018-08-30T03:25:00.423Z,10.60
2018-08-30T03:27:28.611Z,12.97
2018-08-30T03:29:56.682Z,11.43
2018-08-30T03:32:24.878Z,12.37
2018-08-30T03:34:53.060Z,11.77
2018-08-30T03:37:21.162Z,10.43
2018-08-30T03:39:49.284Z,12.63
2018-08-30T03:42:17.349Z,10.50
2018-08-30T03:44:45.406Z,11.80
2018-08-30T03:47:13.600Z,9.97
2018-08-30T03:49:41.728Z,11.63
2018-08-30T03:52:10.396Z,8.90
2018-08-30T03:54:38.585Z,10.20
2018-08-30T03:57:06.715Z,12.10
2018-08-30T03:59:34.742Z,11.63
2018-08-30T04:02:03.450Z,13.67
2018-08-30T04:04:31.560Z,10.90
2018-08-30T04:06:59.789Z,10.90
2018-08-30T04:09:28.009Z,10.30
2018-08-30T04:11:56.024Z,12.30
2018-08-30T04:14:24.071Z,12.47
2018-08-30T04:16:52.300Z,11.90
2018-08-30T04:19:20.264Z,9.77
2018-08-30T04:21:48.483Z,12.30
2018-08-30T04:24:16.608Z,13.73
2018-08-30T04:26:44.570Z,12.13
2018-08-30T04:29:12.757Z,10.17
2018-08-30T04:31:40.804Z,12.03
2018-08-30T04:34:08.962Z,10.17
2018-08-30T04:36:37.156Z,10.30
2018-08-30T04:39:07.639Z,9.63
2018-08-30T04:41:36.118Z,10.30
2018-08-30T04:44:04.643Z,11.77
2018-08-30T04:46:32.750Z,10.17
2018-08-30T04:49:01.351Z,10.37
2018-08-30T04:51:29.666Z,10.13
2018-08-30T04:53:58.042Z,9.83
2018-08-30T04:56:26.368Z,8.60
2018-08-30T04:58:54.556Z,9.73
2018-08-30T05:01:22.701Z,11.53
2018-08-30T05:03:51.324Z,10.50
2018-08-30T05:06:19.725Z,10.37
2018-08-30T05:08:47.734Z,11.93
2018-08-30T05:11:16.354Z,10.07
2018-08-30T05:13:45.426Z,10.67
2018-08-30T05:16:14.314Z,13.73
2018-08-30T05:18:43.100Z,9.63
2018-08-30T05:21:12.142Z,10.23
2018-08-30T05:23:40.776Z,11.27
2018-08-30T05:26:09.400Z,10.70
2018-08-30T05:28:37.604Z,13.40
2018-08-30T05:31:05.999Z,13.00
2018-08-30T05:33:34.258Z,11.40
2018-08-30T05:36:02.521Z,10.27
2018-08-30T05:38:31.060Z,9.13
2018-08-30T05:40:59.220Z,11.07
2018-08-30T05:43:27.477Z,14.67
2018-08-30T05:45:55.672Z,13.43
2018-08-30T05:48:23.781Z,11.83
2018-08-30T05:50:52.143Z,12.80
2018-08-30T05:53:20.326Z,12.03
2018-08-30T05:55:48.864Z,13.80
2018-08-30T05:58:17.210Z,12.77
2018-08-30T06:00:46.642Z,11.80
2018-08-30T06:03:15.142Z,12.30
2018-08-30T06:05:44.017Z,13.77
2018-08-30T06:08:12.453Z,15.77
2018-08-30T06:10:40.609Z,13.23
2018-08-30T06:13:08.939Z,12.27
2018-08-30T06:15:37.095Z,13.87
2018-08-30T06:18:05.317Z,12.23
2018-08-30T06:20:33.458Z,13.93
2018-08-30T06:23:01.660Z,17.47
2018-08-30T06:25:29.730Z,14.63
2018-08-30T06:27:57.865Z,13.27
2018-08-30T06:30:26.051Z,16.57
2018-08-30T06:32:54.165Z,16.77
2018-08-30T06:35:22.396Z,17.33
2018-08-30T06:37:50.584Z,16.37
2018-08-30T06:40:18.988Z,16.17
2018-08-30T06:42:47.590Z,18.07
2018-08-30T06:45:15.862Z,15.17
2018-08-30T06:47:44.058Z,13.43
2018-08-30T06:50:12.212Z,15.83
2018-08-30T06:52:40.332Z,15.20
2018-08-30T06:55:08.518Z,16.90
2018-08-30T06:57:36.560Z,15.87
2018-08-30T07:00:05.073Z,14.80
2018-08-30T07:02:33.410Z,18.57
2018-08-30T07:05:01.820Z,13.60
2018-08-30T07:07:30.080Z,14.73
2018-08-30T07:09:58.194Z,19.13
2018-08-30T07:12:26.512Z,12.73
2018-08-30T07:14:54.929Z,14.20
2018-08-30T07:17:23.125Z,16.33
2018-08-30T07:19:51.430Z,15.40
2018-08-30T07:22:19.584Z,14.67
2018-08-30T07:24:47.715Z,14.23
2018-08-30T07:27:16.697Z,14.50
2018-08-30T07:29:45.356Z,13.10
2018-08-30T07:32:14.365Z,12.93
2018-08-30T07:34:42.913Z,10.37
2018-08-30T07:37:11.415Z,10.83
2018-08-30T07:39:39.672Z,10.07
2018-08-30T07:42:08.225Z,12.40
2018-08-30T07:44:36.745Z,12.37
2018-08-30T07:47:05.769Z,12.43
2018-08-30T07:49:34.036Z,11.67
2018-08-30T07:52:02.674Z,12.20
2018-08-30T07:54:31.263Z,14.07
2018-08-30T07:56:59.619Z,13.13
2018-08-30T07:59:28.073Z,10.13
2018-08-30T08:01:56.650Z,11.50
2018-08-30T08:04:25.103Z,11.03
2018-08-30T08:06:53.788Z,11.27
2018-08-30T08:09:22.130Z,12.10
2018-08-30T08:11:50.390Z,11.90
2018-08-30T08:14:18.591Z,10.67
2018-08-30T08:16:46.910Z,11.73
2018-08-30T08:19:15.546Z,11.60
2018-08-30T08:21:43.978Z,10.10
2018-08-30T08:24:12.377Z,10.57
2018-08-30T08:26:41.228Z,11.00
2018-08-30T08:29:09.899Z,13.07
2018-08-30T08:31:38.458Z,10.43
2018-08-30T08:34:06.941Z,9.40
2018-08-30T08:36:35.586Z,11.38
2018-08-30T08:39:05.808Z,11.10
2018-08-30T08:41:34.422Z,11.83
2018-08-30T08:44:02.913Z,10.63
2018-08-30T08:46:31.065Z,13.20
2018-08-30T08:48:59.252Z,10.47
2018-08-30T08:51:27.386Z,11.33
2018-08-30T08:53:55.595Z,12.05
2018-08-30T08:56:23.843Z,15.30
2018-08-30T08:58:52.430Z,9.85
2018-08-30T09:01:20.461Z,10.23
2018-08-30T09:03:49.544Z,11.15
2018-08-30T09:06:19.047Z,9.83
2018-08-30T09:08:47.417Z,10.55
2018-08-30T09:11:15.895Z,10.78
2018-08-30T09:13:44.094Z,11.90
2018-08-30T09:16:12.475Z,10.80
2018-08-30T09:18:40.834Z,10.78
2018-08-30T09:21:09.385Z,11.70
2018-08-30T09:23:37.580Z,11.80
2018-08-30T09:26:05.986Z,9.15
2018-08-30T09:28:34.126Z,12.70
2018-08-30T09:31:02.339Z,12.73
2018-08-30T09:33:30.476Z,11.10
2018-08-30T09:35:58.672Z,10.43
2018-08-30T09:38:27.100Z,14.18
2018-08-30T09:40:55.681Z,10.45
2018-08-30T09:43:23.820Z,9.60
2018-08-30T09:45:51.963Z,7.50
2018-08-30T09:48:20.163Z,9.33
2018-08-30T09:50:48.613Z,12.15
2018-08-30T09:53:16.825Z,8.05
2018-08-30T09:55:45.129Z,9.43
2018-08-30T09:58:13.301Z,9.28
2018-08-30T10:00:47.236Z,10.60
2018-08-30T10:03:15.616Z,8.48
2018-08-30T10:05:43.803Z,10.38
2018-08-30T10:08:12.121Z,9.78
2018-08-30T10:10:40.459Z,8.80
2018-08-30T10:13:08.804Z,8.73
2018-08-30T10:15:37.115Z,12.05
2018-08-30T10:18:05.299Z,8.83
2018-08-30T10:20:33.422Z,8.63
2018-08-30T10:23:01.546Z,8.05
2018-08-30T10:25:29.857Z,10.58
2018-08-30T10:27:58.342Z,9.53
2018-08-30T10:30:26.475Z,9.20
2018-08-30T10:32:54.802Z,11.50
2018-08-30T10:35:23.657Z,9.50
2018-08-30T10:37:52.157Z,7.65
2018-08-30T10:40:21.020Z,7.87
2018-08-30T10:42:49.231Z,8.35
2018-08-30T10:45:17.336Z,8.73
2018-08-30T10:47:45.683Z,7.15
2018-08-30T10:50:13.801Z,6.55
2018-08-30T10:52:42.133Z,7.10
2018-08-30T10:55:10.331Z,6.83
2018-08-30T10:57:38.855Z,8.55
2018-08-30T11:00:07.296Z,7.35
2018-08-30T11:02:35.722Z,6.92
2018-08-30T11:05:04.232Z,8.10
2018-08-30T11:07:32.799Z,7.83
2018-08-30T11:10:01.463Z,7.60
2018-08-30T11:12:29.750Z,8.93
2018-08-30T11:14:58.843Z,7.10
2018-08-30T11:17:27.297Z,8.68
2018-08-30T11:19:55.767Z,6.22
2018-08-30T11:22:23.834Z,6.37
2018-08-30T11:24:52.138Z,6.15
2018-08-30T11:27:21.030Z,5.55
2018-08-30T11:29:49.722Z,7.70
2018-08-30T11:32:18.001Z,6.10
2018-08-30T11:34:46.493Z,5.65
2018-08-30T11:37:15.898Z,5.60
2018-08-30T11:39:45.375Z,8.08
2018-08-30T11:42:13.930Z,5.95
2018-08-30T11:44:43.195Z,5.35
2018-08-30T11:47:12.447Z,5.80
2018-08-30T11:49:40.676Z,6.65
2018-08-30T11:52:09.687Z,5.33
2018-08-30T11:54:38.715Z,5.95
2018-08-30T11:57:06.924Z,4.72
2018-08-30T11:59:35.360Z,5.58
2018-08-30T12:02:03.567Z,4.22
2018-08-30T12:04:31.812Z,4.85
2018-08-30T12:07:00.026Z,6.65
2018-08-30T12:09:28.253Z,5.40
2018-08-30T12:11:56.530Z,4.75
2018-08-30T12:14:24.827Z,5.30
2018-08-30T12:16:53.093Z,5.42
2018-08-30T12:19:22.393Z,6.12
2018-08-30T12:21:50.782Z,5.40
2018-08-30T12:24:18.972Z,6.05
2018-08-30T12:26:47.775Z,5.08
2018-08-30T12:29:16.315Z,5.75
2018-08-30T12:31:44.606Z,4.62
2018-08-30T12:34:13.971Z,6.20
2018-08-30T12:36:42.527Z,5.67
2018-08-30T12:39:12.707Z,5.15
2018-08-30T12:41:41.607Z,8.13
2018-08-30T12:44:10.102Z,6.00
2018-08-30T12:46:38.747Z,6.85
2018-08-30T12:49:07.188Z,6.20
2018-08-30T12:51:35.784Z,5.45
2018-08-30T12:54:04.730Z,6.55
2018-08-30T12:56:33.109Z,5.55
2018-08-30T12:59:06.828Z,7.03
2018-08-30T13:01:35.296Z,5.92
2018-08-30T13:04:03.552Z,5.58
2018-08-30T13:06:31.861Z,5.35
2018-08-30T13:09:00.609Z,7.37
2018-08-30T13:11:28.795Z,6.12
2018-08-30T13:13:57.369Z,6.35
2018-08-30T13:16:26.211Z,6.05
2018-08-30T13:18:54.722Z,6.10
2018-08-30T13:21:23.240Z,6.70
2018-08-30T13:23:51.446Z,4.67
2018-08-30T13:26:19.669Z,5.40
2018-08-30T13:28:48.035Z,7.65
2018-08-30T13:31:16.291Z,5.80
2018-08-30T13:33:44.698Z,5.83
2018-08-30T13:36:13.145Z,5.47
2018-08-30T13:38:41.818Z,5.33
2018-08-30T13:41:09.964Z,5.03
2018-08-30T13:43:38.501Z,7.37
2018-08-30T13:46:06.769Z,5.78
2018-08-30T13:48:34.846Z,5.05
2018-08-30T13:51:03.014Z,5.55
2018-08-30T13:53:31.580Z,5.53
2018-08-30T13:56:00.130Z,6.03
2018-08-30T13:58:28.375Z,5.92
2018-08-30T14:00:56.868Z,6.17
2018-08-30T14:03:26.050Z,5.08
2018-08-30T14:05:54.121Z,5.40
2018-08-30T14:08:23.213Z,6.55
2018-08-30T14:10:51.719Z,5.33
2018-08-30T14:13:20.019Z,5.72
2018-08-30T14:15:47.917Z,6.15
2018-08-30T14:18:16.189Z,6.62
2018-08-30T14:20:44.813Z,8.43
2018-08-30T14:23:13.355Z,5.78
2018-08-30T14:25:41.591Z,5.70
2018-08-30T14:28:09.816Z,5.45
2018-08-30T14:30:38.224Z,7.17
2018-08-30T14:33:06.674Z,5.65
2018-08-30T14:35:34.988Z,6.15
2018-08-30T14:38:03.493Z,5.45
2018-08-30T14:40:32.602Z,6.22
2018-08-30T14:43:01.081Z,7.17
2018-08-30T14:45:29.323Z,5.65
2018-08-30T14:47:57.873Z,6.65
2018-08-30T14:50:26.326Z,5.60
2018-08-30T14:52:54.472Z,6.47
2018-08-30T14:55:22.606Z,6.22
2018-08-30T14:57:50.786Z,6.53
2018-08-30T15:00:19.133Z,6.58
2018-08-30T15:02:47.516Z,6.35
2018-08-30T15:05:16.128Z,6.78
2018-08-30T15:07:44.304Z,7.53
2018-08-30T15:10:12.791Z,7.15
2018-08-30T15:12:40.958Z,6.20
2018-08-30T15:15:09.120Z,6.42
2018-08-30T15:17:37.396Z,6.08
2018-08-30T15:20:06.301Z,6.62
2018-08-30T15:22:34.672Z,5.67
2018-08-30T15:25:02.803Z,6.90
2018-08-30T15:27:31.353Z,6.78
2018-08-30T15:29:59.767Z,6.08
2018-08-30T15:32:28.003Z,5.67
2018-08-30T15:34:56.269Z,6.72
2018-08-30T15:37:24.416Z,6.58
2018-08-30T15:39:52.744Z,9.10
2018-08-30T15:42:21.116Z,9.30
2018-08-30T15:44:49.387Z,6.17
2018-08-30T15:47:17.792Z,6.03
2018-08-30T15:49:46.143Z,7.72
2018-08-30T15:52:14.356Z,7.33
2018-08-30T15:54:42.509Z,7.53
2018-08-30T15:57:11.137Z,6.33
2018-08-30T15:59:40.515Z,6.60
2018-08-30T16:02:08.772Z,6.72
2018-08-30T16:04:37.235Z,6.62
2018-08-30T16:07:05.517Z,7.05
2018-08-30T16:09:33.788Z,7.10
2018-08-30T16:12:01.953Z,8.20
2018-08-30T16:14:30.434Z,7.72
2018-08-30T16:16:58.926Z,6.30
2018-08-30T16:19:27.262Z,7.42
2018-08-30T16:21:55.689Z,9.37
2018-08-30T16:24:24.161Z,7.53
2018-08-30T16:26:52.487Z,7.40
2018-08-30T16:29:21.063Z,7.97
2018-08-30T16:31:49.641Z,6.70
2018-08-30T16:34:17.849Z,7.83
2018-08-30T16:36:46.116Z,7.87
2018-08-30T16:39:14.457Z,8.67
2018-08-30T16:41:42.812Z,6.47
2018-08-30T16:44:11.106Z,8.90
2018-08-30T16:46:39.541Z,7.27
2018-08-30T16:49:08.643Z,10.07
2018-08-30T16:51:37.303Z,9.43
2018-08-30T16:54:05.527Z,7.37
2018-08-30T16:56:34.316Z,8.90
2018-08-30T16:59:03.832Z,8.03
2018-08-30T17:01:33.381Z,7.33
2018-08-30T17:04:02.846Z,7.17
2018-08-30T17:06:33.222Z,8.83
2018-08-30T17:09:02.314Z,9.10
2018-08-30T17:11:31.022Z,8.87
2018-08-30T17:13:59.480Z,8.20
2018-08-30T17:16:27.779Z,11.13
2018-08-30T17:19:01.529Z,8.90
2018-08-30T17:21:30.551Z,9.13
2018-08-30T17:23:59.043Z,9.43
2018-08-30T17:26:27.628Z,9.13
2018-08-30T17:28:56.050Z,9.93
2018-08-30T17:31:24.764Z,10.83
2018-08-30T17:33:53.978Z,10.23
2018-08-30T17:36:22.664Z,9.57
2018-08-30T17:38:51.162Z,10.83
2018-08-30T17:41:19.684Z,12.27
2018-08-30T17:43:48.136Z,9.37
2018-08-30T17:46:16.628Z,10.53
2018-08-30T17:48:45.105Z,8.70
2018-08-30T17:51:13.703Z,11.03
2018-08-30T17:53:42.178Z,7.97
2018-08-30T17:56:10.690Z,8.47
2018-08-30T17:58:39.480Z,11.53
2018-08-30T18:01:08.312Z,8.87
2018-08-30T18:03:36.606Z,11.23
2018-08-30T18:06:05.503Z,10.07
2018-08-30T18:08:34.169Z,10.27
2018-08-30T18:11:03.843Z,10.03
2018-08-30T18:13:33.108Z,9.53
2018-08-30T18:16:02.645Z,8.97
2018-08-30T18:18:32.516Z,9.20
2018-08-30T18:21:02.148Z,9.93
2018-08-30T18:23:30.937Z,8.97
2018-08-30T18:26:00.338Z,9.50
2018-08-30T18:28:29.486Z,10.10
2018-08-30T18:30:57.999Z,10.10
2018-08-30T18:33:26.496Z,11.77
2018-08-30T18:35:55.404Z,8.93
2018-08-30T18:38:25.197Z,9.60
2018-08-30T18:40:54.208Z,8.40
2018-08-30T18:43:22.682Z,12.50
2018-08-30T18:45:51.562Z,8.63
2018-08-30T18:48:19.848Z,9.73
2018-08-30T18:50:48.427Z,10.50
2018-08-30T18:53:17.132Z,9.20
2018-08-30T18:55:45.604Z,11.23
2018-08-30T18:58:14.411Z,8.33
2018-08-30T19:00:42.839Z,10.50
2018-08-30T19:03:11.517Z,12.10
2018-08-30T19:05:40.010Z,9.67
2018-08-30T19:08:08.715Z,10.23
2018-08-30T19:10:37.453Z,11.37
2018-08-30T19:13:05.928Z,11.53
2018-08-30T19:15:39.665Z,11.17
2018-08-30T19:18:13.547Z,8.73
2018-08-30T19:20:42.089Z,8.90
2018-08-30T19:23:10.340Z,9.33
2018-08-30T19:25:39.014Z,10.33
2018-08-30T19:28:07.356Z,9.17
2018-08-30T19:30:35.686Z,9.70
2018-08-30T19:33:03.974Z,10.33
2018-08-30T19:35:37.866Z,8.57
2018-08-30T19:38:06.319Z,8.23
2018-08-30T19:40:40.561Z,10.43
2018-08-30T19:43:08.856Z,10.97
2018-08-30T19:45:37.340Z,7.30
2018-08-30T19:48:05.704Z,8.67
2018-08-30T19:50:35.032Z,11.30
2018-08-30T19:53:03.629Z,7.53
2018-08-30T19:55:31.977Z,10.30
2018-08-30T19:58:00.776Z,8.83
2018-08-30T20:00:29.090Z,7.97
2018-08-30T20:03:04.379Z,9.87
2018-08-30T20:05:32.874Z,9.20
2018-08-30T20:08:01.465Z,9.97
2018-08-30T20:10:29.874Z,9.43
2018-08-30T20:12:58.388Z,9.70
2018-08-30T20:15:26.658Z,9.43
2018-08-30T20:17:54.787Z,10.37
2018-08-30T20:20:23.039Z,8.00
2018-08-30T20:22:51.238Z,11.20
2018-08-30T20:25:19.364Z,8.63
2018-08-30T20:27:47.545Z,9.63
2018-08-30T20:30:15.702Z,7.40
2018-08-30T20:32:44.134Z,9.60
2018-08-30T20:35:12.281Z,8.60
2018-08-30T20:37:40.488Z,8.03
2018-08-30T20:40:09.176Z,10.23
2018-08-30T20:42:37.256Z,7.20
2018-08-30T20:45:05.454Z,8.97
2018-08-30T20:47:33.698Z,8.47
2018-08-30T20:50:01.846Z,10.77
2018-08-30T20:52:30.055Z,8.73
2018-08-30T20:54:58.191Z,9.23
2018-08-30T20:57:26.890Z,8.97
2018-08-30T20:59:55.259Z,10.23
2018-08-30T21:02:23.378Z,8.30
2018-08-30T21:04:51.428Z,9.90
2018-08-30T21:07:19.755Z,8.97
2018-08-30T21:09:47.864Z,10.67
2018-08-30T21:12:15.959Z,10.20
2018-08-30T21:14:44.092Z,8.93
2018-08-30T21:17:12.102Z,9.63
2018-08-30T21:19:40.879Z,10.90
2018-08-30T21:22:09.243Z,10.27
2018-08-30T21:24:37.692Z,8.90
2018-08-30T21:27:06.056Z,9.70
2018-08-30T21:29:34.113Z,8.87
2018-08-30T21:32:02.373Z,9.30
2018-08-30T21:34:30.444Z,10.20
2018-08-30T21:36:58.551Z,8.53
2018-08-30T21:39:26.609Z,8.97
2018-08-30T21:41:54.755Z,10.60
2018-08-30T21:44:22.875Z,9.40
2018-08-30T21:46:51.065Z,10.10
2018-08-30T21:49:19.340Z,10.43
2018-08-30T21:51:47.740Z,11.00
2018-08-30T21:54:15.979Z,8.07
2018-08-30T21:56:44.088Z,11.10
2018-08-30T21:59:12.239Z,8.77
2018-08-30T22:01:40.689Z,8.27
2018-08-30T22:04:08.952Z,9.00
2018-08-30T22:06:38.629Z,9.93
2018-08-30T22:09:09.459Z,9.80
2018-08-30T22:11:39.679Z,11.17
2018-08-30T22:14:08.271Z,12.63
2018-08-30T22:16:36.636Z,9.77
2018-08-30T22:19:04.847Z,9.87
2018-08-30T22:21:32.976Z,8.33
2018-08-30T22:24:01.050Z,9.60
2018-08-30T22:26:29.384Z,9.00
2018-08-30T22:28:57.738Z,10.73
2018-08-30T22:31:25.996Z,10.43
2018-08-30T22:33:54.167Z,11.00
2018-08-30T22:36:22.189Z,10.37
2018-08-30T22:38:50.354Z,9.97
2018-08-30T22:41:18.420Z,10.80
2018-08-30T22:43:46.626Z,10.17
2018-08-30T22:46:14.782Z,8.77
2018-08-30T22:48:42.912Z,12.57
2018-08-30T22:51:11.110Z,9.33
2018-08-30T22:53:39.351Z,10.43
2018-08-30T22:56:07.618Z,8.90
2018-08-30T22:58:35.811Z,10.90
2018-08-30T23:01:04.104Z,11.67
2018-08-30T23:03:32.270Z,8.77
2018-08-30T23:06:00.584Z,10.37
2018-08-30T23:08:28.808Z,10.43
2018-08-30T23:10:56.961Z,8.97
2018-08-30T23:13:25.331Z,9.77
2018-08-30T23:15:53.566Z,10.13
2018-08-30T23:18:21.638Z,9.03
2018-08-30T23:20:49.721Z,10.37
2018-08-30T23:23:17.991Z,9.33
2018-08-30T23:25:46.401Z,9.90
2018-08-30T23:28:14.481Z,12.33
2018-08-30T23:30:42.992Z,11.53
2018-08-30T23:33:11.101Z,11.30
2018-08-30T23:35:39.427Z,11.03
2018-08-30T23:38:07.999Z,10.80
2018-08-30T23:40:36.604Z,10.10
2018-08-30T23:43:04.821Z,9.73
2018-08-30T23:45:32.876Z,9.10
2018-08-30T23:48:00.941Z,11.40
2018-08-30T23:50:29.162Z,10.83
2018-08-30T23:52:57.339Z,11.40
2018-08-30T23:55:25.340Z,11.33
2018-08-30T23:58:04.399Z,13.13
